• Back
  •  
  • Position of Reservoir Gates
S.No.
No. of opened gates
Position of opening (In m)
Reporting Date
Reporting Time
Discharge in Cumecs
Discharge in Cusecs
Actual date and time of Gate opening
1
2
3
4
5
6
7
8
1 1 17/08/2012 1:09:16 PM 46
2 1 17/08/2012 1:09:16 PM 46
3 2 18/08/2012 12:08:17 AM 46
4 2 18/08/2012 12:08:17 AM 46
5 2 18/08/2012 12:08:17 AM 46
6 2 20/08/2012 7:47:51 AM 40
7 2 22/08/2012 8:30:50 PM 20
8 2 23/08/2012 9:53:51 AM 20
9 2 23/08/2012 4:28:20 PM 40
10 2 24/08/2012 8:05:25 AM 40
11 2 25/08/2012 8:13:31 AM 40
12 0 26/08/2012 7:42:30 AM 0
13 0 20/09/2012 8:48:32 AM 0
14 1 22/09/2012 7:10:53 PM 10
15 1 23/09/2012 8:10:51 AM 10
16 2 11/09/2012 5:16:55 PM 60
17 3 12/09/2012 7:53:46 AM 100
18 2 12/09/2012 5:42:32 PM 70
19 2 30/08/2012 9:09:54 AM 40
20 2 01/09/2012 7:57:56 AM 20
21 2 02/09/2012 8:37:23 AM 20
22 1 03/09/2012 9:14:00 AM 10
23 1 03/09/2012 11:16:13 AM 10
24 1 04/09/2012 8:12:04 AM 10
25 1 04/09/2012 8:43:26 AM 10
26 1 04/09/2012 9:13:30 AM 10
27 1 05/09/2012 7:53:25 AM 10
28 1 13/09/2012 8:01:51 AM 40
29 1 14/09/2012 8:14:35 AM 40
30 0 16/09/2012 8:30:46 AM 0
31 2 06/09/2012 6:04:23 AM 100
32 8 06/09/2012 11:55:47 AM 3000
33 8 07/09/2012 8:12:17 AM 1050
34 1 24/09/2012 8:17:50 AM 10
35 0 25/09/2012 8:46:48 AM 0
36 1 08/09/2012 7:57:54 AM 25
37 1 09/09/2012 8:24:36 AM 30
38 1 10/09/2012 11:02:09 AM 30
39 1 11/09/2012 8:06:17 AM 30
40 2 04/07/2013 12:18:41 PM 78
41 2 05/07/2013 7:24:41 AM 78
42 0 05/07/2013 1:03:41 PM 0
43 2 24/07/2013 2:47:40 PM 4000
44 2 24/07/2013 2:47:40 PM 4000
45 2 24/07/2013 2:47:40 PM 4000
46 6 26/07/2013 5:50:39 PM 12000
47 2 27/07/2013 11:53:39 AM 4000
48 0 28/07/2013 10:50:39 AM 0
49 1 29/07/2013 12:08:07 PM 2025
50 1 30/07/2013 7:16:38 AM 1500
51 2 01/08/2013 11:01:49 AM 4072
52 7 01/08/2013 6:04:49 PM 14252
53 2 02/08/2013 6:46:49 AM 4072
54 1 03/08/2013 7:19:49 AM 2036
55 1 05/08/2013 7:06:46 AM 1221
56 1 10/08/2013 7:00:46 AM 1221
57 1 11/08/2013 7:30:59 AM 1221
58 1 12/08/2013 8:40:33 AM 1221
59 0 12/08/2013 7:20:29 PM 0
60 2 23/08/2013 2:28:12 PM 4106
61 2 23/08/2013 5:28:12 PM 4106
62 6 23/08/2013 7:16:12 PM 12318
63 2 25/08/2013 7:58:12 AM 4106
64 0 25/08/2013 1:09:06 PM 0
65 1 01/09/2013 6:16:45 PM 1330
66 0 11/09/2013 3:30:16 PM 0
67 0 13/09/2013 7:39:17 AM 0
68 1 21/09/2013 3:37:17 PM 2206
69 2 21/09/2013 4:07:17 PM 4412
70 5 21/09/2013 4:34:17 PM 11030
71 2 22/09/2013 7:46:17 AM 4412
72 5 22/09/2013 7:13:17 PM 11030
73 2 23/09/2013 6:25:17 AM 4412
74 1 23/09/2013 7:43:17 AM 2206
75 2 23/09/2013 2:40:17 PM 4412
76 1 30/09/2013 8:09:24 AM 1313
77 1 30/09/2013 8:12:24 AM 1313
78 1 01/10/2013 7:57:24 AM 2206
79 1 04/10/2013 9:01:27 AM 2206
80 1 06/10/2013 7:41:48 AM 2206
81 1 07/10/2013 7:29:48 AM 2206
82 1 08/10/2013 8:38:48 AM 2206
83 4 08/10/2013 7:41:48 PM 8824
84 4 08/10/2013 7:41:48 PM 8824
85 1 09/10/2013 7:59:48 AM 2206
86 1 10/10/2013 7:59:48 AM 2206
87 1 11/10/2013 9:14:18 AM 2206
88 1 12/10/2013 7:53:00 AM 2206
89 1 14/10/2013 7:46:40 AM 2206
90 1 15/10/2013 7:43:40 AM 2206
91 1 16/10/2013 8:49:40 AM 2206
92 1 17/10/2013 3:34:40 PM 1323
93 1 19/10/2013 11:15:55 AM 1323
94 0 21/10/2013 8:18:55 AM 0
95 0 22/10/2013 11:12:55 AM 0
96 0 23/10/2013 9:12:55 AM 0
97 0 24/10/2013 3:24:55 PM 0
98 0 26/10/2013 7:48:57 AM 0
99 0 27/10/2013 8:21:57 AM 0
100 0 29/10/2013 8:24:57 AM 0
101 1 04/09/2014 12:15:45 PM 30
102 1 05/09/2014 7:19:45 AM 30
103 0 05/09/2014 11:03:45 AM 0
104 1 07/09/2014 4:31:45 PM 30
105 2 07/09/2014 9:31:45 PM 60
106 3 08/09/2014 6:31:45 AM 188
107 1 09/09/2014 7:35:45 AM 62.8
108 8 08/09/2014 3:19:45 PM 502
109 0 10/09/2014 7:11:45 AM 0
110 1 10/09/2014 7:35:45 PM 62.8
111 1 11/09/2014 8:03:45 AM 62.8
112 1 12/09/2014 8:27:45 AM 62.8
113 1 13/09/2014 7:03:45 AM 62.8
114 0 15/09/2014 3:30:34 PM 0
115 0 16/09/2014 8:18:34 AM 0
116 1 17/09/2014 7:30:34 PM 12.5
117 0 21/09/2014 7:30:35 PM 0
118 8 25/07/2015 2:15:17 PM 465.44
119 8 25/07/2015 2:47:17 PM 943.28
120 8 25/07/2015 3:19:17 PM 1394.4
121 8 25/07/2015 5:15:17 PM 1880
122 8 25/07/2015 5:15:17 PM 1880
123 5 26/07/2015 7:23:17 AM 290
124 7 27/07/2015 5:23:17 AM 418
125 8 27/07/2015 1:03:17 PM 477
126 8 28/07/2015 7:15:17 AM 477
127 2 29/07/2015 7:39:17 AM 119
128 1 30/07/2015 7:03:17 AM 59.72
129 0 30/07/2015 10:47:17 AM 0
130 2 05/08/2015 4:00:58 AM 125
131 8 05/08/2015 5:56:58 AM 502
132 8 05/08/2015 6:04:58 AM 502
133 8 05/08/2015 6:36:58 AM 1934
134 8 05/08/2015 7:12:58 AM 2840
135 8 05/08/2015 11:40:58 AM 2840
136 8 05/08/2015 11:40:58 AM 990
137 8 05/08/2015 5:28:58 PM 450
138 1 06/08/2015 7:32:58 AM 59.72
139 1 08/08/2015 7:32:58 AM 59.72
140 0 09/08/2015 7:04:58 AM 0
141 1 12/08/2015 7:22:25 AM 59.72
142 1 13/08/2015 10:59:29 AM 35
143 1 14/08/2015 1:41:57 PM 30
144 1 14/08/2015 7:41:57 PM 59.72
145 1 18/08/2015 9:55:58 AM 30
146 1 19/08/2015 7:31:58 AM 30
147 0 19/08/2015 10:07:58 PM 0
148 1 0.5 05/10/2021 8:00:00 AM 62.8 2217.78 5.10.21 8am
149 0 0 05/10/2021 5:00:00 PM 0 0
150 1 0.5 08/10/2021 8:00:00 AM 62.8 2217.78 8.10.21 8am
151 0 0 08/10/2021 5:00:00 PM 0 0
152 1 0.5 10/10/2021 8:00:00 PM 62.8 2217.78
153 1 0.5 09/10/2021 8:00:00 PM 62.8 2217.78
154 0 0 10/10/2021 8:00:00 PM 0 0
155 1 0.5 12/10/2021 8:00:00 AM 62.8 2217.78 12.10.21 8am
156 0 0 12/10/2021 4:00:00 PM 0 0
157 1 0.5 29/08/2020 12:00:00 AM 61 2154.21 Actual Date of Gate Opening 28.08.2020 & Time 9.05 AM
158 1 0.5 29/08/2020 4:00:00 PM 61 2154.21
159 1 0.5 30/08/2020 12:00:00 AM 61 2154.21 Gates opened on dated 29.08.2020 at 8.00AM
160 1 0.5 30/08/2020 8:00:00 AM 61 2154.21
161 1 0.5 30/08/2020 12:00:00 PM 61 2154.21
162 1 0.5 31/08/2020 12:00:00 AM 470 16598.05 Gates Opened on Dated 30.08.2020 at 4.00 PM
163 1 0.5 01/09/2020 12:00:00 AM 61 2154.21 31/08/2020 12.00PM
164 1 0.5 02/09/2020 12:00:00 AM 61 2154.21 01/09/2020 12.00PM
165 0 0 02/09/2020 2:00:00 PM 0 0 ALL GATES ARE CLOSED
166 1 08/08/2016 12:45:29 PM 10.39
167 1 0.5 08/08/2016 11:30:00 AM 10.39 366.92
168 0 0 13/09/2020 1:30:00 AM 0 0
169 2 0.5 17/09/2020 12:00:00 PM 122 4308.43
170 1 09/08/2016 7:23:56 AM 10.39
171 1 09/08/2016 7:34:07 AM 10.39
172 1 10/08/2016 8:52:46 AM 10.39
173 1 1 18/09/2020 12:00:00 AM 61 2154.21
174 1 0.5 10/08/2016 12:00:00 AM 10 353.15 Gate open-8/8/2016 11:30 AM
175 0 0 10/08/2016 4:30:00 PM 0 0 Closed
176 0 10/08/2016 4:58:22 PM 0
177 2 0.5 22/09/2020 3:15:00 PM 122 4308.43
178 4 0.5 22/09/2020 8:00:00 PM 247 8722.81
179 4 0.5 23/09/2020 12:00:00 AM 247 8722.81
180 8 1 23/09/2020 4:00:00 PM 990 34961.85
181 6 1 23/09/2020 8:00:00 PM 492 17374.98
182 6 1 24/09/2020 12:00:00 AM 492 17374.98
183 1 0.5 24/09/2020 4:00:00 PM 61 2154.21
184 1 0.5 24/09/2020 8:00:00 PM 61 2154.21
185 1 0.5 25/09/2020 12:00:00 AM 61 2154.21
186 0 0 25/09/2020 8:00:00 PM 0 0 Gate is closed
187 1 0.5 03/10/2020 8:00:00 PM 61 2154.21 Gate re-opened
188 1 0.5 20/08/2016 10:00:00 AM 61 2154.21
189 1 0.5 08/10/2020 12:00:00 PM 61 2154.21
190 0 0 08/10/2020 8:00:00 PM 0 0 Gate closed
191 1 0.5 10/10/2020 8:00:00 AM 61 2154.21
192 0 0 10/10/2020 12:00:00 PM 0 0 all gates closed.
193 2 0.5 21/08/2016 10:30:00 AM 122 4308.43
194 1 0.5 22/08/2016 4:01:00 PM 61 2154.21
195 1 0.5 23/08/2016 12:00:00 AM 61 2154.21 gate open-22/8/2016 4 PM
196 1 0.5 24/08/2016 12:00:00 AM 61 2154.21 gate open 22/8/2016 4 PM
197 4 0.5 22/08/2016 6:00:00 AM 244 8616.86
198 1 20/08/2016 11:59:58 AM 61
199 2 20/08/2016 10:27:54 PM 130
200 4 21/08/2016 4:07:54 AM 244
201 8 21/08/2016 7:49:56 AM 488
202 2 21/08/2016 10:26:42 AM 122
203 3 22/08/2016 7:32:06 AM 183
204 3 22/08/2016 7:32:06 AM 183
205 4 22/08/2016 7:49:06 AM 288
206 4 22/08/2016 7:49:06 AM 244
207 4 22/08/2016 7:49:06 AM 244
208 1 23/08/2016 7:04:23 AM 61
209 1 23/08/2016 8:34:43 AM 61
210 1 24/08/2016 7:30:41 AM 61
211 0 24/08/2016 7:22:41 PM 0
212 0 0 24/08/2016 6:00:00 PM 0 0 closed
213 1 27/08/2016 9:59:19 AM 61.8
214 2 27/08/2016 6:48:10 PM 150
215 2 0.6 27/08/2016 6:30:00 PM 150 5297.25
216 1 28/08/2016 7:56:10 AM 61
217 1 0.5 28/08/2016 8:00:01 AM 61 2154.21 Gate opened at 8 am on 28.08.2016
218 1 0.5 29/08/2016 12:00:00 AM 61 2154.21 Gate open-28/8/2016 8 AM
219 0 0 29/08/2016 8:00:00 AM 0 0 Closed, 4:00 PM
220 1 02/09/2016 5:41:56 PM 61
221 1 30/08/2016 9:04:22 PM 61
222 1 31/08/2016 7:48:22 AM 61
223 1 0.5 31/08/2016 12:00:00 AM 61 2154.21 Gate open-30/8/2016 9 PM
224 1 0.5 01/09/2016 12:00:00 AM 61 2154.21 Gate open-30/8/2016 9 PM
225 0 0 01/09/2016 12:00:00 PM 0 0 Gates closed at 11:30 am on 01/09/2016
226 0 0 03/09/2016 3:01:00 PM 0 0 CLOSED
227 1 0.5 02/09/2016 6:00:00 PM 61 2154.21
228 1 0.5 03/09/2016 12:00:00 AM 61 2154.21 Gate open- 2/9/2016 6 PM
229 1 08/09/2016 9:55:15 AM 61
230 1 0.5 14/09/2016 1:30:00 PM 61 2154.21
231 1 15/09/2016 8:15:21 AM 61
232 1 15/09/2016 4:11:30 PM 61
233 1 17/09/2016 5:15:30 AM 61
234 2 17/09/2016 5:39:30 AM 122
235 1 17/09/2016 6:59:30 AM 61
236 3 17/09/2016 6:34:48 PM 123
237 2 17/09/2016 6:34:48 PM 122
238 3 17/09/2016 9:14:48 PM 369
239 3 17/09/2016 11:42:48 PM 183
240 2 18/09/2016 6:54:48 AM 122
241 1 18/09/2016 8:14:48 AM 61
242 2 0.5 18/09/2016 8:30:00 AM 122 4308.43
243 0 0 18/09/2016 12:30:00 PM 0 0
244 1 0.5 18/09/2016 5:00:00 PM 61 2154.21
245 1 19/09/2016 8:21:41 AM 61
246 1 0.5 27/09/2021 12:00:00 PM 62.68 2213.54 27.9.21 12pm
247 1 0.5 28/09/2021 8:00:00 AM 62.68 2213.54 28.9.21 8am
248 1 0.5 29/09/2021 8:00:00 AM 62.68 2213.54 29.9.21 8am
249 0 0 29/09/2021 4:00:00 PM 0 0
250 2 19/09/2016 5:12:38 PM 122
251 1 0.5 20/09/2016 12:00:00 AM 61 2154.21 Gate open 18/9/2016 5 PM
252 1 21/09/2016 8:56:50 PM 61
253 1 0.5 30/09/2021 8:00:00 AM 62.68 2213.54 30/09/2021
254 0 0 30/09/2021 8:00:00 PM 0 0
255 1 0.5 01/10/2021 8:00:00 AM 62.68 2213.54 1.10.218am
256 1 0.5 03/10/2021 8:00:00 AM 62.8 2217.78
257 1 0.5 03/10/2021 12:00:00 PM 62.8 2217.78
258 0 0 21/09/2016 5:00:00 PM 0 0 closed
259 1 0.5 22/09/2016 12:00:00 AM 61 2154.21 Gate open 21/9/2016 9 PM
260 1 0.5 23/09/2016 12:00:00 AM 61 2154.21 Gate open 21.9.16 9 PM
261 0 24/09/2016 9:03:16 AM 0
262 1 25/09/2016 11:11:21 AM 61
263 1 0.5 26/09/2016 12:00:00 AM 61 2154.21 Gate open 25/9/16 11AM
264 0 27/09/2016 7:10:19 AM 0
265 1 29/09/2016 7:02:20 AM 31
266 0 29/09/2016 10:58:21 AM 0
267 1 30/09/2016 4:23:19 PM 61
268 1 01/10/2016 8:15:19 AM 61
269 2 01/10/2016 5:23:19 PM 122
270 1 02/10/2016 7:07:19 AM 61
271 1 0.5 04/10/2016 12:00:00 AM 61 2154.21 Gate 0pen 30/9/16 6PM
272 0 06/10/2016 8:12:49 AM 0
273 1 0.5 07/10/2016 8:01:00 AM 61 2154.21
274 0 08/10/2016 6:56:23 AM 0
275 1 08/10/2016 3:48:23 PM 61
276 1 08/10/2016 3:48:23 PM 61
277 1 0.5 13/10/2016 12:00:00 AM 61 2154.21 Gate open 0.50 M, Date 13/10/16,Time 12:15 PM.
278 0 0 15/10/2016 12:00:00 AM 0 0 Gate Closed date 13/10/16 time 10:15 AM
279 1 17/10/2016 11:55:33 AM 61
280 0 0 17/10/2016 5:01:00 PM 0 0 Closed
281 0 0 18/10/2016 12:00:00 AM 0 0 Gate Closed Date 17/10/16, Time 05:00 PM.
282 2 0.5 09/08/2019 1:10:00 AM 116.3 4109.96
283 4 0.5 09/08/2019 5:00:00 AM 232.7 8219.92
284 8 0.5 09/08/2019 5:30:00 AM 465.4 16437.01
285 8 0.63 09/08/2019 6:15:00 AM 546.4 19298.23 average gate opening =0.625m
286 8 0.88 09/08/2019 7:08:00 AM 846.3 29889.91
287 8 1.25 09/08/2019 6:00:00 PM 1136 40117.84
288 8 2 09/08/2019 7:08:00 PM 1882 66462.83
289 8 2 10/08/2019 12:09:10 AM 1882 66462.83
290 1 0.5 10/08/2019 3:30:00 AM 58.18 2054.63
291 1 0.5 10/08/2019 7:46:00 AM 58.18 2054.63
292 0 0 10/08/2019 2:00:00 PM 0 0 All Gates Closed
293 2 0.5 13/08/2019 4:00:00 PM 125 4414.38
294 2 0.5 14/08/2019 12:01:00 AM 125 4414.38
295 1 0.5 14/08/2019 10:30:00 AM 60.25 2127.73
296 1 0.5 15/08/2019 4:40:00 AM 60.25 2127.73
297 1 5 15/08/2019 8:00:00 AM 62 2189.53
298 1 0.5 17/08/2019 12:05:00 AM 62.25 2198.36
299 1 0.5 17/08/2019 4:00:00 PM 62.25 2198.36
300 1 0.5 18/08/2019 12:29:00 AM 62.25 2198.36
301 1 0.5 19/08/2019 12:17:00 AM 62.25 2198.36
302 0 0 19/08/2019 6:30:00 PM 0 0 All gates are closed
303 1 0.5 20/08/2019 12:01:00 AM 62.25 2198.36
304 0 0 20/08/2019 1:00:00 AM 0 0 all gates are closed at8:50pm dated19/8/2019
305 1 0.5 23/08/2019 11:00:00 AM 62 2189.53
306 1 0.5 24/08/2019 12:04:05 AM 62 2189.53
307 0 0 24/08/2019 7:45:00 AM 0 0 All gates ade closed
308 1 0.5 25/08/2019 8:45:00 AM 62 2189.53
309 2 0.5 25/08/2019 5:30:00 PM 125 4414.38
310 2 0.5 26/08/2019 12:05:00 AM 125 4414.38
311 8 1 26/08/2019 11:00:00 AM 990 34961.85
312 8 1.44 26/08/2019 8:00:00 PM 1100 38846.5
313 8 1.44 27/08/2019 12:02:00 AM 1100 38846.5
314 2 2 28/08/2019 12:01:00 AM 250 8828.75
315 2 0.5 28/08/2019 12:00:00 PM 125 4414.38
316 2 0.5 31/08/2019 11:35:00 AM 125 4414.38
317 1 0.5 31/08/2019 11:55:00 AM 62 2189.53
318 1 0.5 01/09/2019 11:55:00 AM 62 2189.53
319 1 0.5 02/09/2019 7:00:00 AM 62 2189.53
320 2 0.5 02/09/2019 8:00:00 AM 125 4414.38
321 1 0.5 05/09/2019 10:00:00 PM 62.36 2202.24
322 2 0.5 07/09/2019 12:02:00 AM 125 4414.38
323 2 0.5 06/09/2019 7:00:00 PM 125 4414.38
324 1 0.5 07/09/2019 12:15:00 PM 62 2189.53
325 1 0.5 08/09/2019 8:00:00 AM 62 2189.53
326 1 0.5 09/09/2019 3:00:00 AM 62 2189.53
327 5 1 09/09/2019 4:00:00 PM 619 21859.98
328 1 0.5 11/09/2019 12:00:00 PM 62 2189.53
329 6 1 13/09/2019 5:00:00 AM 746 26344.99
330 6 1 13/09/2019 11:30:00 AM 746 26344.99
331 6 1 14/09/2019 12:01:00 AM 746 26344.99
332 2 1 14/09/2019 12:00:00 PM 249 8793.43
333 4 1 16/09/2019 10:00:00 AM 500 17657.5
334 1 1 16/09/2019 7:00:00 PM 123.2 4353.63
335 1 1 15/09/2019 5:50:00 PM 126 4450.4
336 1 1 16/09/2019 12:01:00 AM 126 4449.69
337 6 1 16/09/2019 11:30:00 AM 746 26344.99
338 1 1 17/09/2019 12:01:00 AM 123.2 4350.81
339 1 0.5 19/09/2019 8:00:00 AM 62 2189.53
340 1 0.5 18/09/2019 10:00:00 AM 62 2189.53
341 1 0.5 19/09/2019 4:00:00 PM 62 2189.53
342 6 1.5 20/09/2019 12:01:00 AM 1063 37539.85
343 1 1 18/09/2019 12:01:00 AM 62 2189.53
344 1 1 18/09/2019 10:00:00 AM 123 4343.74
345 6 1.5 19/09/2019 8:00:00 PM 1063 37539.85
346 2 0.6 19/09/2019 4:00:00 PM 85.84 3031.44
347 2 1 20/09/2019 4:00:00 PM 246 8687.49
348 2 1 20/09/2019 8:10:00 PM 246 8687.49
349 0 0 21/09/2019 9:00:00 AM 0 0 All Gates are closed.
350 4 1 22/09/2019 12:01:00 AM 450 15891.75
351 1 0.5 24/09/2019 8:00:00 PM 62 2189.53
352 4 450 21/09/2019 10:00:00 PM 450 15891.75
353 2 1 25/09/2019 8:00:00 PM 248 8758.12
354 0 0 22/09/2019 10:00:00 AM 0 0 All Gates are closed
355 2 0.5 23/09/2019 4:00:00 PM 125 4414.38
356 1 0.5 22/09/2019 4:00:00 PM 62 2189.53
357 2 0.5 23/09/2019 4:00:00 PM 125 4414.38
358 1 1 28/09/2019 12:01:00 AM 125 4414.38
359 1 0.5 23/09/2019 1:15:00 AM 62 2189.53
360 1 0.5 26/09/2019 12:00:00 PM 62 2189.53
361 1 0.5 25/09/2019 4:00:00 PM 62 2189.53
362 2 1 26/09/2019 12:01:00 AM 248 8758.12
363 2 0.5 24/09/2019 12:01:00 AM 125 4414.38
364 1 1 26/09/2019 8:00:00 PM 125 4414.38
365 1 125 27/09/2019 12:01:00 AM 125 4414.38
366 1 1 27/09/2019 8:00:00 AM 125 4414.38
367 1 0.5 28/09/2019 11:30:00 AM 62.5 2207.19
368 1 0.5 29/09/2019 12:50:00 AM 62.5 2207.19
369 0 0 29/09/2019 9:00:00 AM 0 0 All Gates are closed.
370 1 1 30/09/2019 8:00:00 PM 125 4414.38
371 1 0.5 01/10/2019 8:00:00 AM 62 2189.53
372 0 0 01/10/2019 11:30:00 AM 0 0 all gates are closed
373 1 0.5 02/10/2019 10:00:00 AM 62 2189.53
374 1 0.5 05/10/2019 8:00:00 PM 62 2189.53
375 0 0 02/10/2019 7:00:00 PM 0 0 all gates are
376 1 0.3 07/10/2019 12:01:00 AM 71.71 2532.44
377 1 0.5 04/10/2019 8:00:00 PM 62 2189.53
378 1 0.5 11/10/2019 4:30:00 PM 62 2189.53
379 1 0.5 10/10/2019 6:00:00 PM 62 2189.53
Powered by © Water Resources Department (MP). All Rights Reserved.